sensor_id;sensor_type;location;lat;lon;timestamp;P1;durP1;ratioP1;P2;durP2;ratioP2
72205;SDS011;60111;48.286;7.812;2024-03-25T00:01:56;2.00;;;1.80;;
72205;SDS011;60111;48.286;7.812;2024-03-25T00:04:28;2.80;;;1.67;;
72205;SDS011;60111;48.286;7.812;2024-03-25T00:07:01;3.52;;;1.70;;
72205;SDS011;60111;48.286;7.812;2024-03-25T00:09:34;2.20;;;1.75;;
72205;SDS011;60111;48.286;7.812;2024-03-25T00:12:07;3.17;;;1.62;;
72205;SDS011;60111;48.286;7.812;2024-03-25T00:14:39;4.25;;;2.12;;
72205;SDS011;60111;48.286;7.812;2024-03-25T00:17:12;2.27;;;1.75;;
72205;SDS011;60111;48.286;7.812;2024-03-25T00:19:46;3.60;;;2.05;;
72205;SDS011;60111;48.286;7.812;2024-03-25T00:22:21;1.82;;;1.72;;
72205;SDS011;60111;48.286;7.812;2024-03-25T00:24:55;2.87;;;1.77;;
72205;SDS011;60111;48.286;7.812;2024-03-25T00:27:28;4.78;;;1.77;;
72205;SDS011;60111;48.286;7.812;2024-03-25T00:30:01;3.70;;;1.70;;
72205;SDS011;60111;48.286;7.812;2024-03-25T00:32:35;4.30;;;1.92;;
72205;SDS011;60111;48.286;7.812;2024-03-25T00:35:08;4.37;;;2.25;;
72205;SDS011;60111;48.286;7.812;2024-03-25T00:37:41;4.20;;;2.80;;
72205;SDS011;60111;48.286;7.812;2024-03-25T00:40:13;4.47;;;2.72;;
72205;SDS011;60111;48.286;7.812;2024-03-25T00:42:46;4.17;;;2.80;;
72205;SDS011;60111;48.286;7.812;2024-03-25T00:45:19;4.15;;;2.50;;
72205;SDS011;60111;48.286;7.812;2024-03-25T00:47:51;2.17;;;1.98;;
72205;SDS011;60111;48.286;7.812;2024-03-25T00:50:24;2.45;;;2.12;;
72205;SDS011;60111;48.286;7.812;2024-03-25T00:52:57;4.60;;;2.33;;
72205;SDS011;60111;48.286;7.812;2024-03-25T00:55:30;2.67;;;2.10;;
72205;SDS011;60111;48.286;7.812;2024-03-25T00:58:02;3.70;;;2.20;;
72205;SDS011;60111;48.286;7.812;2024-03-25T01:00:36;7.60;;;2.93;;
72205;SDS011;60111;48.286;7.812;2024-03-25T01:03:08;3.62;;;2.30;;
72205;SDS011;60111;48.286;7.812;2024-03-25T01:05:41;2.97;;;2.03;;
72205;SDS011;60111;48.286;7.812;2024-03-25T01:08:14;2.95;;;2.02;;
72205;SDS011;60111;48.286;7.812;2024-03-25T01:10:47;4.27;;;2.03;;
72205;SDS011;60111;48.286;7.812;2024-03-25T01:13:21;3.85;;;2.05;;
72205;SDS011;60111;48.286;7.812;2024-03-25T01:15:53;2.93;;;1.93;;
72205;SDS011;60111;48.286;7.812;2024-03-25T01:18:26;5.50;;;2.35;;
72205;SDS011;60111;48.286;7.812;2024-03-25T01:20:59;5.03;;;2.60;;
72205;SDS011;60111;48.286;7.812;2024-03-25T01:23:31;7.80;;;2.27;;
72205;SDS011;60111;48.286;7.812;2024-03-25T01:26:04;4.83;;;2.50;;
72205;SDS011;60111;48.286;7.812;2024-03-25T01:28:37;7.15;;;3.20;;
72205;SDS011;60111;48.286;7.812;2024-03-25T01:31:09;3.72;;;2.40;;
72205;SDS011;60111;48.286;7.812;2024-03-25T01:33:42;5.00;;;2.72;;
72205;SDS011;60111;48.286;7.812;2024-03-25T01:36:15;5.23;;;2.40;;
72205;SDS011;60111;48.286;7.812;2024-03-25T01:38:49;4.80;;;2.70;;
72205;SDS011;60111;48.286;7.812;2024-03-25T01:41:22;7.60;;;2.70;;
72205;SDS011;60111;48.286;7.812;2024-03-25T01:43:55;4.22;;;2.50;;
72205;SDS011;60111;48.286;7.812;2024-03-25T01:46:27;5.87;;;2.58;;
72205;SDS011;60111;48.286;7.812;2024-03-25T01:49:01;6.12;;;2.90;;
72205;SDS011;60111;48.286;7.812;2024-03-25T01:51:34;4.40;;;2.77;;
72205;SDS011;60111;48.286;7.812;2024-03-25T01:54:08;4.67;;;2.77;;
72205;SDS011;60111;48.286;7.812;2024-03-25T01:56:41;4.78;;;2.72;;
72205;SDS011;60111;48.286;7.812;2024-03-25T01:59:15;4.97;;;2.70;;
72205;SDS011;60111;48.286;7.812;2024-03-25T02:01:49;4.22;;;2.50;;
72205;SDS011;60111;48.286;7.812;2024-03-25T02:04:22;5.12;;;2.98;;
72205;SDS011;60111;48.286;7.812;2024-03-25T02:06:54;7.60;;;3.20;;
72205;SDS011;60111;48.286;7.812;2024-03-25T02:12:01;8.00;;;3.33;;
72205;SDS011;60111;48.286;7.812;2024-03-25T02:14:35;6.53;;;3.23;;
72205;SDS011;60111;48.286;7.812;2024-03-25T02:17:07;7.53;;;3.80;;
72205;SDS011;60111;48.286;7.812;2024-03-25T02:19:40;7.90;;;3.72;;
72205;SDS011;60111;48.286;7.812;2024-03-25T02:22:13;8.60;;;3.83;;
72205;SDS011;60111;48.286;7.812;2024-03-25T02:24:46;7.15;;;3.35;;
72205;SDS011;60111;48.286;7.812;2024-03-25T02:27:21;8.55;;;3.50;;
72205;SDS011;60111;48.286;7.812;2024-03-25T02:29:54;5.10;;;3.30;;
72205;SDS011;60111;48.286;7.812;2024-03-25T02:32:30;7.17;;;3.40;;
72205;SDS011;60111;48.286;7.812;2024-03-25T02:35:03;5.50;;;2.92;;
72205;SDS011;60111;48.286;7.812;2024-03-25T02:37:38;6.80;;;3.12;;
72205;SDS011;60111;48.286;7.812;2024-03-25T02:40:12;5.70;;;2.62;;
72205;SDS011;60111;48.286;7.812;2024-03-25T02:42:45;5.75;;;2.83;;
72205;SDS011;60111;48.286;7.812;2024-03-25T02:45:18;8.68;;;3.42;;
72205;SDS011;60111;48.286;7.812;2024-03-25T02:47:51;5.85;;;3.30;;
72205;SDS011;60111;48.286;7.812;2024-03-25T02:50:24;8.08;;;3.35;;
72205;SDS011;60111;48.286;7.812;2024-03-25T02:52:57;6.22;;;3.27;;
72205;SDS011;60111;48.286;7.812;2024-03-25T02:55:29;7.05;;;2.90;;
72205;SDS011;60111;48.286;7.812;2024-03-25T02:58:02;6.75;;;2.90;;
72205;SDS011;60111;48.286;7.812;2024-03-25T03:00:34;6.15;;;2.60;;
72205;SDS011;60111;48.286;7.812;2024-03-25T03:03:07;7.50;;;2.75;;
72205;SDS011;60111;48.286;7.812;2024-03-25T03:05:40;7.72;;;2.87;;
72205;SDS011;60111;48.286;7.812;2024-03-25T03:08:13;5.70;;;2.85;;
72205;SDS011;60111;48.286;7.812;2024-03-25T03:10:45;5.50;;;2.50;;
72205;SDS011;60111;48.286;7.812;2024-03-25T03:13:18;4.75;;;2.52;;
72205;SDS011;60111;48.286;7.812;2024-03-25T03:15:51;8.97;;;2.93;;
72205;SDS011;60111;48.286;7.812;2024-03-25T03:18:24;4.80;;;2.50;;
72205;SDS011;60111;48.286;7.812;2024-03-25T03:20:56;7.70;;;2.50;;
72205;SDS011;60111;48.286;7.812;2024-03-25T03:23:29;6.67;;;2.87;;
72205;SDS011;60111;48.286;7.812;2024-03-25T03:26:02;4.75;;;2.75;;
72205;SDS011;60111;48.286;7.812;2024-03-25T03:28:34;5.08;;;3.00;;
72205;SDS011;60111;48.286;7.812;2024-03-25T03:31:07;4.70;;;2.60;;
72205;SDS011;60111;48.286;7.812;2024-03-25T03:33:40;6.92;;;2.85;;
72205;SDS011;60111;48.286;7.812;2024-03-25T03:36:14;5.33;;;2.65;;
72205;SDS011;60111;48.286;7.812;2024-03-25T03:38:50;4.95;;;2.33;;
72205;SDS011;60111;48.286;7.812;2024-03-25T03:41:25;5.70;;;2.42;;
72205;SDS011;60111;48.286;7.812;2024-03-25T03:43:57;5.70;;;2.50;;
72205;SDS011;60111;48.286;7.812;2024-03-25T03:46:30;4.95;;;3.02;;
72205;SDS011;60111;48.286;7.812;2024-03-25T03:49:02;6.53;;;3.02;;
72205;SDS011;60111;48.286;7.812;2024-03-25T03:51:35;5.45;;;2.87;;
72205;SDS011;60111;48.286;7.812;2024-03-25T03:54:07;8.43;;;3.13;;
72205;SDS011;60111;48.286;7.812;2024-03-25T03:56:40;5.80;;;3.10;;
72205;SDS011;60111;48.286;7.812;2024-03-25T03:59:12;4.57;;;3.13;;
72205;SDS011;60111;48.286;7.812;2024-03-25T04:01:45;5.90;;;3.50;;
72205;SDS011;60111;48.286;7.812;2024-03-25T04:04:18;7.08;;;3.10;;
72205;SDS011;60111;48.286;7.812;2024-03-25T04:06:51;7.08;;;3.27;;
72205;SDS011;60111;48.286;7.812;2024-03-25T04:09:24;6.00;;;2.57;;
72205;SDS011;60111;48.286;7.812;2024-03-25T04:11:56;6.90;;;2.90;;
72205;SDS011;60111;48.286;7.812;2024-03-25T04:14:29;7.72;;;3.02;;
72205;SDS011;60111;48.286;7.812;2024-03-25T04:17:02;7.33;;;3.90;;
72205;SDS011;60111;48.286;7.812;2024-03-25T04:19:35;6.40;;;3.08;;
72205;SDS011;60111;48.286;7.812;2024-03-25T04:22:08;6.90;;;3.00;;
72205;SDS011;60111;48.286;7.812;2024-03-25T04:24:42;5.28;;;3.05;;
72205;SDS011;60111;48.286;7.812;2024-03-25T04:27:15;5.00;;;2.98;;
72205;SDS011;60111;48.286;7.812;2024-03-25T04:29:49;6.00;;;2.90;;
72205;SDS011;60111;48.286;7.812;2024-03-25T04:32:22;7.28;;;3.00;;
72205;SDS011;60111;48.286;7.812;2024-03-25T04:34:55;4.62;;;2.70;;
72205;SDS011;60111;48.286;7.812;2024-03-25T04:37:27;4.63;;;2.83;;
72205;SDS011;60111;48.286;7.812;2024-03-25T04:40:01;3.27;;;2.42;;
72205;SDS011;60111;48.286;7.812;2024-03-25T04:42:35;7.15;;;2.60;;
72205;SDS011;60111;48.286;7.812;2024-03-25T04:45:07;4.30;;;2.50;;
72205;SDS011;60111;48.286;7.812;2024-03-25T04:47:40;4.70;;;2.60;;
72205;SDS011;60111;48.286;7.812;2024-03-25T04:50:13;5.83;;;3.00;;
72205;SDS011;60111;48.286;7.812;2024-03-25T04:52:46;4.05;;;2.80;;
72205;SDS011;60111;48.286;7.812;2024-03-25T04:55:19;3.22;;;2.40;;
72205;SDS011;60111;48.286;7.812;2024-03-25T04:57:52;4.92;;;2.62;;
72205;SDS011;60111;48.286;7.812;2024-03-25T05:00:25;4.70;;;2.87;;
72205;SDS011;60111;48.286;7.812;2024-03-25T05:02:57;7.35;;;3.27;;
72205;SDS011;60111;48.286;7.812;2024-03-25T05:05:30;7.00;;;2.87;;
72205;SDS011;60111;48.286;7.812;2024-03-25T05:08:03;5.08;;;2.95;;
72205;SDS011;60111;48.286;7.812;2024-03-25T05:10:56;5.40;;;3.02;;
72205;SDS011;60111;48.286;7.812;2024-03-25T05:13:29;5.08;;;2.52;;
72205;SDS011;60111;48.286;7.812;2024-03-25T05:16:02;4.58;;;2.87;;
72205;SDS011;60111;48.286;7.812;2024-03-25T05:18:35;4.70;;;3.40;;
72205;SDS011;60111;48.286;7.812;2024-03-25T05:21:07;7.65;;;3.35;;
72205;SDS011;60111;48.286;7.812;2024-03-25T05:23:40;3.55;;;2.77;;
72205;SDS011;60111;48.286;7.812;2024-03-25T05:26:13;3.33;;;3.00;;
72205;SDS011;60111;48.286;7.812;2024-03-25T05:28:46;4.62;;;3.22;;
72205;SDS011;60111;48.286;7.812;2024-03-25T05:31:20;4.72;;;2.80;;
72205;SDS011;60111;48.286;7.812;2024-03-25T05:33:53;5.75;;;3.17;;
72205;SDS011;60111;48.286;7.812;2024-03-25T05:36:25;5.30;;;2.77;;
72205;SDS011;60111;48.286;7.812;2024-03-25T05:38:58;4.55;;;2.92;;
72205;SDS011;60111;48.286;7.812;2024-03-25T05:41:31;8.08;;;3.58;;
72205;SDS011;60111;48.286;7.812;2024-03-25T05:44:04;7.37;;;4.58;;
72205;SDS011;60111;48.286;7.812;2024-03-25T05:46:36;6.78;;;4.03;;
72205;SDS011;60111;48.286;7.812;2024-03-25T05:49:10;4.43;;;3.00;;
72205;SDS011;60111;48.286;7.812;2024-03-25T05:51:43;7.05;;;4.05;;
72205;SDS011;60111;48.286;7.812;2024-03-25T05:54:15;5.40;;;3.60;;
72205;SDS011;60111;48.286;7.812;2024-03-25T05:56:48;6.55;;;4.10;;
72205;SDS011;60111;48.286;7.812;2024-03-25T05:59:20;7.37;;;4.40;;
72205;SDS011;60111;48.286;7.812;2024-03-25T06:01:53;9.05;;;4.67;;
72205;SDS011;60111;48.286;7.812;2024-03-25T06:04:26;7.65;;;4.55;;
72205;SDS011;60111;48.286;7.812;2024-03-25T06:06:59;8.47;;;4.90;;
72205;SDS011;60111;48.286;7.812;2024-03-25T06:09:32;8.65;;;6.12;;
72205;SDS011;60111;48.286;7.812;2024-03-25T06:12:05;9.43;;;5.53;;
72205;SDS011;60111;48.286;7.812;2024-03-25T06:14:39;6.20;;;4.70;;
72205;SDS011;60111;48.286;7.812;2024-03-25T06:17:11;6.12;;;4.70;;
72205;SDS011;60111;48.286;7.812;2024-03-25T06:19:44;7.08;;;4.60;;
72205;SDS011;60111;48.286;7.812;2024-03-25T06:22:17;6.37;;;5.15;;
72205;SDS011;60111;48.286;7.812;2024-03-25T06:24:50;7.05;;;4.87;;
72205;SDS011;60111;48.286;7.812;2024-03-25T06:29:56;5.40;;;3.98;;
72205;SDS011;60111;48.286;7.812;2024-03-25T06:32:30;6.55;;;4.53;;
72205;SDS011;60111;48.286;7.812;2024-03-25T06:35:20;6.20;;;4.40;;
72205;SDS011;60111;48.286;7.812;2024-03-25T06:37:53;6.55;;;5.35;;
72205;SDS011;60111;48.286;7.812;2024-03-25T06:40:26;6.65;;;5.00;;
72205;SDS011;60111;48.286;7.812;2024-03-25T06:42:58;6.55;;;4.22;;
72205;SDS011;60111;48.286;7.812;2024-03-25T06:45:31;9.67;;;4.53;;
72205;SDS011;60111;48.286;7.812;2024-03-25T06:48:04;5.58;;;3.98;;
72205;SDS011;60111;48.286;7.812;2024-03-25T06:50:37;6.37;;;4.03;;
72205;SDS011;60111;48.286;7.812;2024-03-25T06:53:10;6.12;;;3.85;;
72205;SDS011;60111;48.286;7.812;2024-03-25T06:55:50;7.83;;;3.33;;
72205;SDS011;60111;48.286;7.812;2024-03-25T06:58:23;6.42;;;3.47;;
72205;SDS011;60111;48.286;7.812;2024-03-25T07:01:03;5.03;;;3.40;;
72205;SDS011;60111;48.286;7.812;2024-03-25T07:03:33;5.53;;;3.00;;
72205;SDS011;60111;48.286;7.812;2024-03-25T07:06:07;4.22;;;2.60;;
72205;SDS011;60111;48.286;7.812;2024-03-25T07:08:39;8.73;;;2.52;;
72205;SDS011;60111;48.286;7.812;2024-03-25T07:11:12;5.62;;;2.35;;
72205;SDS011;60111;48.286;7.812;2024-03-25T07:13:45;6.30;;;2.45;;
72205;SDS011;60111;48.286;7.812;2024-03-25T07:16:18;3.42;;;2.30;;
72205;SDS011;60111;48.286;7.812;2024-03-25T07:18:51;4.60;;;2.45;;
72205;SDS011;60111;48.286;7.812;2024-03-25T07:21:23;3.12;;;2.50;;
72205;SDS011;60111;48.286;7.812;2024-03-25T07:23:56;3.87;;;2.33;;
72205;SDS011;60111;48.286;7.812;2024-03-25T07:26:28;6.17;;;2.98;;
72205;SDS011;60111;48.286;7.812;2024-03-25T07:29:01;4.25;;;2.52;;
72205;SDS011;60111;48.286;7.812;2024-03-25T07:31:34;16.48;;;5.10;;
72205;SDS011;60111;48.286;7.812;2024-03-25T07:34:06;6.33;;;2.70;;
72205;SDS011;60111;48.286;7.812;2024-03-25T07:36:41;7.47;;;2.35;;
72205;SDS011;60111;48.286;7.812;2024-03-25T07:39:13;4.47;;;2.20;;
72205;SDS011;60111;48.286;7.812;2024-03-25T07:41:46;6.62;;;2.45;;
72205;SDS011;60111;48.286;7.812;2024-03-25T07:44:19;3.37;;;1.80;;
72205;SDS011;60111;48.286;7.812;2024-03-25T07:46:52;4.20;;;1.92;;
72205;SDS011;60111;48.286;7.812;2024-03-25T07:49:26;3.90;;;2.13;;
72205;SDS011;60111;48.286;7.812;2024-03-25T07:51:58;7.60;;;2.20;;
72205;SDS011;60111;48.286;7.812;2024-03-25T07:54:31;2.02;;;1.75;;
72205;SDS011;60111;48.286;7.812;2024-03-25T07:57:04;4.42;;;1.95;;
72205;SDS011;60111;48.286;7.812;2024-03-25T07:59:37;6.58;;;1.90;;
72205;SDS011;60111;48.286;7.812;2024-03-25T08:02:10;3.13;;;1.70;;
72205;SDS011;60111;48.286;7.812;2024-03-25T08:04:43;4.97;;;2.02;;
72205;SDS011;60111;48.286;7.812;2024-03-25T08:07:15;4.10;;;1.92;;
72205;SDS011;60111;48.286;7.812;2024-03-25T08:09:48;3.27;;;1.90;;
72205;SDS011;60111;48.286;7.812;2024-03-25T08:12:21;4.42;;;1.75;;
72205;SDS011;60111;48.286;7.812;2024-03-25T08:14:53;4.67;;;2.55;;
72205;SDS011;60111;48.286;7.812;2024-03-25T08:17:26;5.45;;;2.12;;
72205;SDS011;60111;48.286;7.812;2024-03-25T08:19:58;5.72;;;1.80;;
72205;SDS011;60111;48.286;7.812;2024-03-25T08:22:31;59.05;;;5.17;;
72205;SDS011;60111;48.286;7.812;2024-03-25T08:25:04;6.03;;;1.90;;
72205;SDS011;60111;48.286;7.812;2024-03-25T08:27:37;5.07;;;2.03;;
72205;SDS011;60111;48.286;7.812;2024-03-25T08:30:10;3.60;;;1.87;;
72205;SDS011;60111;48.286;7.812;2024-03-25T08:32:43;4.73;;;2.00;;
72205;SDS011;60111;48.286;7.812;2024-03-25T08:35:16;8.78;;;1.87;;
72205;SDS011;60111;48.286;7.812;2024-03-25T08:37:49;3.10;;;1.90;;
72205;SDS011;60111;48.286;7.812;2024-03-25T08:40:22;4.85;;;2.65;;
72205;SDS011;60111;48.286;7.812;2024-03-25T08:42:55;6.25;;;2.20;;
72205;SDS011;60111;48.286;7.812;2024-03-25T08:45:28;3.95;;;1.75;;
72205;SDS011;60111;48.286;7.812;2024-03-25T08:48:01;3.58;;;1.60;;
72205;SDS011;60111;48.286;7.812;2024-03-25T08:50:34;5.70;;;2.17;;
72205;SDS011;60111;48.286;7.812;2024-03-25T08:53:06;4.05;;;2.12;;
72205;SDS011;60111;48.286;7.812;2024-03-25T08:55:43;6.85;;;2.10;;
72205;SDS011;60111;48.286;7.812;2024-03-25T08:58:19;4.62;;;1.98;;
72205;SDS011;60111;48.286;7.812;2024-03-25T09:00:52;4.77;;;2.10;;
72205;SDS011;60111;48.286;7.812;2024-03-25T09:03:25;3.02;;;1.80;;
72205;SDS011;60111;48.286;7.812;2024-03-25T09:05:57;5.10;;;2.58;;
72205;SDS011;60111;48.286;7.812;2024-03-25T09:08:30;5.97;;;2.33;;
72205;SDS011;60111;48.286;7.812;2024-03-25T09:11:04;4.73;;;1.97;;
72205;SDS011;60111;48.286;7.812;2024-03-25T09:13:38;8.23;;;2.10;;
72205;SDS011;60111;48.286;7.812;2024-03-25T09:16:10;3.58;;;1.90;;
72205;SDS011;60111;48.286;7.812;2024-03-25T09:18:43;3.43;;;2.00;;
72205;SDS011;60111;48.286;7.812;2024-03-25T09:21:16;4.45;;;2.20;;
72205;SDS011;60111;48.286;7.812;2024-03-25T09:23:48;6.47;;;1.92;;
72205;SDS011;60111;48.286;7.812;2024-03-25T09:26:22;8.08;;;2.02;;
72205;SDS011;60111;48.286;7.812;2024-03-25T09:28:55;3.30;;;1.70;;
72205;SDS011;60111;48.286;7.812;2024-03-25T09:31:28;4.17;;;1.90;;
72205;SDS011;60111;48.286;7.812;2024-03-25T09:34:00;4.27;;;2.23;;
72205;SDS011;60111;48.286;7.812;2024-03-25T09:36:33;5.70;;;2.10;;
72205;SDS011;60111;48.286;7.812;2024-03-25T09:39:05;3.52;;;2.17;;
72205;SDS011;60111;48.286;7.812;2024-03-25T09:41:38;7.37;;;2.80;;
72205;SDS011;60111;48.286;7.812;2024-03-25T09:44:14;5.62;;;2.02;;
72205;SDS011;60111;48.286;7.812;2024-03-25T09:46:46;3.85;;;1.92;;
72205;SDS011;60111;48.286;7.812;2024-03-25T09:49:19;3.27;;;1.65;;
72205;SDS011;60111;48.286;7.812;2024-03-25T09:51:54;4.00;;;1.90;;
72205;SDS011;60111;48.286;7.812;2024-03-25T09:54:27;2.33;;;1.70;;
72205;SDS011;60111;48.286;7.812;2024-03-25T09:57:00;2.70;;;1.92;;
72205;SDS011;60111;48.286;7.812;2024-03-25T09:59:54;2.77;;;1.77;;
72205;SDS011;60111;48.286;7.812;2024-03-25T10:02:28;3.58;;;1.82;;
72205;SDS011;60111;48.286;7.812;2024-03-25T10:05:02;5.67;;;1.90;;
72205;SDS011;60111;48.286;7.812;2024-03-25T10:07:35;5.23;;;2.13;;
72205;SDS011;60111;48.286;7.812;2024-03-25T10:10:08;3.45;;;1.80;;
72205;SDS011;60111;48.286;7.812;2024-03-25T10:12:41;3.87;;;2.08;;
72205;SDS011;60111;48.286;7.812;2024-03-25T10:15:17;3.95;;;1.65;;
72205;SDS011;60111;48.286;7.812;2024-03-25T10:17:50;2.83;;;1.72;;
72205;SDS011;60111;48.286;7.812;2024-03-25T10:20:23;4.97;;;1.85;;
72205;SDS011;60111;48.286;7.812;2024-03-25T10:22:56;3.62;;;1.77;;
72205;SDS011;60111;48.286;7.812;2024-03-25T10:25:29;3.22;;;1.52;;
72205;SDS011;60111;48.286;7.812;2024-03-25T10:28:22;3.22;;;1.42;;
72205;SDS011;60111;48.286;7.812;2024-03-25T10:30:55;4.85;;;1.30;;
72205;SDS011;60111;48.286;7.812;2024-03-25T10:33:30;5.17;;;1.32;;
72205;SDS011;60111;48.286;7.812;2024-03-25T10:36:02;2.58;;;1.60;;
72205;SDS011;60111;48.286;7.812;2024-03-25T10:38:36;4.03;;;1.23;;
72205;SDS011;60111;48.286;7.812;2024-03-25T10:41:09;3.87;;;1.75;;
72205;SDS011;60111;48.286;7.812;2024-03-25T10:43:45;1.55;;;1.10;;
72205;SDS011;60111;48.286;7.812;2024-03-25T10:46:19;1.90;;;1.17;;
72205;SDS011;60111;48.286;7.812;2024-03-25T10:49:03;5.85;;;2.30;;
72205;SDS011;60111;48.286;7.812;2024-03-25T10:51:46;3.98;;;1.62;;
72205;SDS011;60111;48.286;7.812;2024-03-25T10:54:22;3.00;;;1.52;;
72205;SDS011;60111;48.286;7.812;2024-03-25T10:56:59;4.45;;;1.37;;
72205;SDS011;60111;48.286;7.812;2024-03-25T10:59:35;1.80;;;1.30;;
72205;SDS011;60111;48.286;7.812;2024-03-25T11:02:12;3.67;;;1.50;;
72205;SDS011;60111;48.286;7.812;2024-03-25T11:04:45;2.02;;;1.17;;
72205;SDS011;60111;48.286;7.812;2024-03-25T11:07:24;2.40;;;1.10;;
72205;SDS011;60111;48.286;7.812;2024-03-25T11:10:02;2.17;;;1.02;;
72205;SDS011;60111;48.286;7.812;2024-03-25T11:12:40;2.90;;;1.40;;
72205;SDS011;60111;48.286;7.812;2024-03-25T11:15:13;3.25;;;1.37;;
72205;SDS011;60111;48.286;7.812;2024-03-25T11:17:49;5.03;;;1.40;;
72205;SDS011;60111;48.286;7.812;2024-03-25T11:20:23;3.92;;;1.32;;
72205;SDS011;60111;48.286;7.812;2024-03-25T11:22:57;3.27;;;1.30;;
72205;SDS011;60111;48.286;7.812;2024-03-25T11:25:30;2.17;;;1.20;;
72205;SDS011;60111;48.286;7.812;2024-03-25T11:28:03;3.70;;;1.63;;
72205;SDS011;60111;48.286;7.812;2024-03-25T11:30:36;1.73;;;1.47;;
72205;SDS011;60111;48.286;7.812;2024-03-25T11:33:11;3.60;;;1.50;;
72205;SDS011;60111;48.286;7.812;2024-03-25T11:35:43;2.20;;;1.60;;
72205;SDS011;60111;48.286;7.812;2024-03-25T11:38:16;3.77;;;1.30;;
72205;SDS011;60111;48.286;7.812;2024-03-25T11:40:48;3.00;;;1.45;;
72205;SDS011;60111;48.286;7.812;2024-03-25T11:43:22;2.37;;;1.30;;
72205;SDS011;60111;48.286;7.812;2024-03-25T11:45:55;2.12;;;1.20;;
72205;SDS011;60111;48.286;7.812;2024-03-25T11:48:31;1.90;;;1.30;;
72205;SDS011;60111;48.286;7.812;2024-03-25T11:51:04;2.80;;;1.42;;
72205;SDS011;60111;48.286;7.812;2024-03-25T11:53:37;2.45;;;1.60;;
72205;SDS011;60111;48.286;7.812;2024-03-25T11:56:10;2.15;;;1.30;;
72205;SDS011;60111;48.286;7.812;2024-03-25T11:58:44;1.37;;;1.10;;
72205;SDS011;60111;48.286;7.812;2024-03-25T12:01:17;3.10;;;1.10;;
72205;SDS011;60111;48.286;7.812;2024-03-25T12:03:50;4.45;;;1.35;;
72205;SDS011;60111;48.286;7.812;2024-03-25T12:06:23;2.45;;;1.32;;
72205;SDS011;60111;48.286;7.812;2024-03-25T12:08:56;2.00;;;1.00;;
72205;SDS011;60111;48.286;7.812;2024-03-25T12:11:46;2.35;;;1.25;;
72205;SDS011;60111;48.286;7.812;2024-03-25T12:14:20;2.77;;;1.15;;
72205;SDS011;60111;48.286;7.812;2024-03-25T12:16:53;3.58;;;1.40;;
72205;SDS011;60111;48.286;7.812;2024-03-25T12:19:25;2.02;;;1.07;;
72205;SDS011;60111;48.286;7.812;2024-03-25T12:21:59;2.55;;;1.30;;
72205;SDS011;60111;48.286;7.812;2024-03-25T12:24:34;2.98;;;1.42;;
72205;SDS011;60111;48.286;7.812;2024-03-25T12:27:07;1.97;;;1.10;;
72205;SDS011;60111;48.286;7.812;2024-03-25T12:29:39;1.92;;;1.20;;
72205;SDS011;60111;48.286;7.812;2024-03-25T12:32:12;3.17;;;1.40;;
72205;SDS011;60111;48.286;7.812;2024-03-25T12:34:45;1.92;;;1.35;;
72205;SDS011;60111;48.286;7.812;2024-03-25T12:37:18;1.67;;;1.05;;
72205;SDS011;60111;48.286;7.812;2024-03-25T12:39:53;1.87;;;1.00;;
72205;SDS011;60111;48.286;7.812;2024-03-25T12:42:27;4.60;;;1.45;;
72205;SDS011;60111;48.286;7.812;2024-03-25T12:45:00;2.73;;;1.00;;
72205;SDS011;60111;48.286;7.812;2024-03-25T12:47:34;4.12;;;1.45;;
72205;SDS011;60111;48.286;7.812;2024-03-25T12:50:06;2.25;;;1.20;;
72205;SDS011;60111;48.286;7.812;2024-03-25T12:52:40;3.07;;;1.20;;
72205;SDS011;60111;48.286;7.812;2024-03-25T12:55:12;3.25;;;1.50;;
72205;SDS011;60111;48.286;7.812;2024-03-25T12:57:45;3.08;;;1.35;;
72205;SDS011;60111;48.286;7.812;2024-03-25T13:00:18;3.70;;;1.17;;
72205;SDS011;60111;48.286;7.812;2024-03-25T13:02:51;1.75;;;1.00;;
72205;SDS011;60111;48.286;7.812;2024-03-25T13:05:23;1.47;;;1.10;;
72205;SDS011;60111;48.286;7.812;2024-03-25T13:07:56;3.08;;;1.10;;
72205;SDS011;60111;48.286;7.812;2024-03-25T13:10:28;1.87;;;1.32;;
72205;SDS011;60111;48.286;7.812;2024-03-25T13:13:01;2.08;;;1.10;;
72205;SDS011;60111;48.286;7.812;2024-03-25T13:15:36;4.07;;;1.30;;
72205;SDS011;60111;48.286;7.812;2024-03-25T13:18:08;2.20;;;1.05;;
72205;SDS011;60111;48.286;7.812;2024-03-25T13:20:41;1.60;;;1.15;;
72205;SDS011;60111;48.286;7.812;2024-03-25T13:25:47;3.42;;;1.02;;
72205;SDS011;60111;48.286;7.812;2024-03-25T13:28:19;1.15;;;0.82;;
72205;SDS011;60111;48.286;7.812;2024-03-25T13:30:53;1.57;;;0.90;;
72205;SDS011;60111;48.286;7.812;2024-03-25T13:33:25;1.85;;;1.07;;
72205;SDS011;60111;48.286;7.812;2024-03-25T13:35:59;2.67;;;0.90;;
72205;SDS011;60111;48.286;7.812;2024-03-25T13:38:31;2.72;;;1.00;;
72205;SDS011;60111;48.286;7.812;2024-03-25T13:41:04;1.95;;;0.90;;
72205;SDS011;60111;48.286;7.812;2024-03-25T13:43:41;2.30;;;0.80;;
72205;SDS011;60111;48.286;7.812;2024-03-25T13:46:14;2.67;;;0.93;;
72205;SDS011;60111;48.286;7.812;2024-03-25T13:48:47;1.17;;;1.00;;
72205;SDS011;60111;48.286;7.812;2024-03-25T13:51:20;4.92;;;1.00;;
72205;SDS011;60111;48.286;7.812;2024-03-25T13:53:53;1.20;;;0.88;;
72205;SDS011;60111;48.286;7.812;2024-03-25T13:56:26;0.62;;;0.60;;
72205;SDS011;60111;48.286;7.812;2024-03-25T13:58:58;3.70;;;0.82;;
72205;SDS011;60111;48.286;7.812;2024-03-25T14:01:31;1.30;;;0.70;;
72205;SDS011;60111;48.286;7.812;2024-03-25T14:04:04;2.42;;;0.90;;
72205;SDS011;60111;48.286;7.812;2024-03-25T14:06:38;2.10;;;1.12;;
72205;SDS011;60111;48.286;7.812;2024-03-25T14:09:27;1.25;;;0.75;;
72205;SDS011;60111;48.286;7.812;2024-03-25T14:12:00;2.10;;;0.80;;
72205;SDS011;60111;48.286;7.812;2024-03-25T14:14:34;1.17;;;0.93;;
72205;SDS011;60111;48.286;7.812;2024-03-25T14:17:06;1.57;;;0.65;;
72205;SDS011;60111;48.286;7.812;2024-03-25T14:19:39;1.50;;;1.00;;
72205;SDS011;60111;48.286;7.812;2024-03-25T14:22:12;1.27;;;0.67;;
72205;SDS011;60111;48.286;7.812;2024-03-25T14:24:44;2.62;;;0.90;;
72205;SDS011;60111;48.286;7.812;2024-03-25T14:27:17;1.25;;;0.88;;
72205;SDS011;60111;48.286;7.812;2024-03-25T14:29:49;1.60;;;0.93;;
72205;SDS011;60111;48.286;7.812;2024-03-25T14:32:22;2.25;;;1.00;;
72205;SDS011;60111;48.286;7.812;2024-03-25T14:34:55;1.17;;;0.75;;
72205;SDS011;60111;48.286;7.812;2024-03-25T14:37:28;2.27;;;1.00;;
72205;SDS011;60111;48.286;7.812;2024-03-25T14:40:00;1.85;;;0.88;;
72205;SDS011;60111;48.286;7.812;2024-03-25T14:42:33;2.67;;;1.02;;
72205;SDS011;60111;48.286;7.812;2024-03-25T14:47:39;1.10;;;0.80;;
72205;SDS011;60111;48.286;7.812;2024-03-25T14:50:12;2.03;;;1.10;;
72205;SDS011;60111;48.286;7.812;2024-03-25T14:52:44;1.02;;;0.70;;
72205;SDS011;60111;48.286;7.812;2024-03-25T14:55:17;1.30;;;0.80;;
72205;SDS011;60111;48.286;7.812;2024-03-25T14:57:50;1.95;;;0.85;;
72205;SDS011;60111;48.286;7.812;2024-03-25T15:00:22;3.77;;;1.10;;
72205;SDS011;60111;48.286;7.812;2024-03-25T15:02:55;1.33;;;0.80;;
72205;SDS011;60111;48.286;7.812;2024-03-25T15:05:28;2.12;;;0.90;;
72205;SDS011;60111;48.286;7.812;2024-03-25T15:08:01;4.53;;;1.07;;
72205;SDS011;60111;48.286;7.812;2024-03-25T15:13:07;3.47;;;1.15;;
72205;SDS011;60111;48.286;7.812;2024-03-25T15:15:40;2.10;;;0.90;;
72205;SDS011;60111;48.286;7.812;2024-03-25T15:18:15;3.77;;;0.82;;
72205;SDS011;60111;48.286;7.812;2024-03-25T15:20:47;1.42;;;0.70;;
72205;SDS011;60111;48.286;7.812;2024-03-25T15:23:21;1.30;;;0.73;;
72205;SDS011;60111;48.286;7.812;2024-03-25T15:25:54;2.62;;;0.65;;
72205;SDS011;60111;48.286;7.812;2024-03-25T15:28:27;1.45;;;0.80;;
72205;SDS011;60111;48.286;7.812;2024-03-25T15:30:59;0.75;;;0.60;;
72205;SDS011;60111;48.286;7.812;2024-03-25T15:33:32;1.75;;;0.70;;
72205;SDS011;60111;48.286;7.812;2024-03-25T15:36:04;1.43;;;0.90;;
72205;SDS011;60111;48.286;7.812;2024-03-25T15:38:37;2.47;;;1.27;;